sensor_id;sensor_type;location;lat;lon;timestamp;P1;durP1;ratioP1;P2;durP2;ratioP2
15603;SDS011;7902;49.042;9.092;2024-03-17T00:00:23;11.40;;;2.10;;
15603;SDS011;7902;49.042;9.092;2024-03-17T00:02:48;14.37;;;2.87;;
15603;SDS011;7902;49.042;9.092;2024-03-17T00:05:15;15.10;;;2.93;;
15603;SDS011;7902;49.042;9.092;2024-03-17T00:07:41;17.90;;;2.97;;
15603;SDS011;7902;49.042;9.092;2024-03-17T00:10:07;15.47;;;3.83;;
15603;SDS011;7902;49.042;9.092;2024-03-17T00:12:33;17.10;;;3.97;;
15603;SDS011;7902;49.042;9.092;2024-03-17T00:14:59;16.00;;;4.60;;
15603;SDS011;7902;49.042;9.092;2024-03-17T00:17:25;16.40;;;4.80;;
15603;SDS011;7902;49.042;9.092;2024-03-17T00:19:51;17.63;;;5.60;;
15603;SDS011;7902;49.042;9.092;2024-03-17T00:22:17;24.90;;;5.20;;
15603;SDS011;7902;49.042;9.092;2024-03-17T00:24:43;17.67;;;4.57;;
15603;SDS011;7902;49.042;9.092;2024-03-17T00:27:10;17.03;;;5.10;;
15603;SDS011;7902;49.042;9.092;2024-03-17T00:29:40;28.03;;;12.30;;
15603;SDS011;7902;49.042;9.092;2024-03-17T00:32:06;34.50;;;15.80;;
15603;SDS011;7902;49.042;9.092;2024-03-17T00:34:32;27.10;;;11.30;;
15603;SDS011;7902;49.042;9.092;2024-03-17T00:36:58;25.10;;;7.87;;
15603;SDS011;7902;49.042;9.092;2024-03-17T00:39:25;22.27;;;6.17;;
15603;SDS011;7902;49.042;9.092;2024-03-17T00:41:51;14.80;;;4.60;;
15603;SDS011;7902;49.042;9.092;2024-03-17T00:44:17;19.47;;;4.07;;
15603;SDS011;7902;49.042;9.092;2024-03-17T00:46:42;14.97;;;4.00;;
15603;SDS011;7902;49.042;9.092;2024-03-17T00:49:09;15.00;;;4.60;;
15603;SDS011;7902;49.042;9.092;2024-03-17T00:51:36;17.17;;;4.00;;
15603;SDS011;7902;49.042;9.092;2024-03-17T00:54:02;16.33;;;3.27;;
15603;SDS011;7902;49.042;9.092;2024-03-17T00:56:28;13.43;;;3.33;;
15603;SDS011;7902;49.042;9.092;2024-03-17T00:58:54;16.57;;;3.70;;
15603;SDS011;7902;49.042;9.092;2024-03-17T01:01:19;29.60;;;9.87;;
15603;SDS011;7902;49.042;9.092;2024-03-17T01:03:46;34.57;;;12.37;;
15603;SDS011;7902;49.042;9.092;2024-03-17T01:06:12;29.07;;;10.60;;
15603;SDS011;7902;49.042;9.092;2024-03-17T01:08:38;24.80;;;8.40;;
15603;SDS011;7902;49.042;9.092;2024-03-17T01:11:03;29.50;;;10.33;;
15603;SDS011;7902;49.042;9.092;2024-03-17T01:13:34;68.00;;;22.97;;
15603;SDS011;7902;49.042;9.092;2024-03-17T01:16:07;36.30;;;10.10;;
15603;SDS011;7902;49.042;9.092;2024-03-17T01:18:33;29.17;;;8.73;;
15603;SDS011;7902;49.042;9.092;2024-03-17T01:21:00;24.00;;;6.83;;
15603;SDS011;7902;49.042;9.092;2024-03-17T01:23:26;18.17;;;5.00;;
15603;SDS011;7902;49.042;9.092;2024-03-17T01:25:52;20.13;;;4.70;;
15603;SDS011;7902;49.042;9.092;2024-03-17T01:28:18;15.40;;;3.70;;
15603;SDS011;7902;49.042;9.092;2024-03-17T01:30:43;13.50;;;3.20;;
15603;SDS011;7902;49.042;9.092;2024-03-17T01:33:10;27.43;;;3.90;;
15603;SDS011;7902;49.042;9.092;2024-03-17T01:35:37;50.00;;;16.67;;
15603;SDS011;7902;49.042;9.092;2024-03-17T01:38:03;44.15;;;15.35;;
15603;SDS011;7902;49.042;9.092;2024-03-17T01:40:29;32.77;;;10.33;;
15603;SDS011;7902;49.042;9.092;2024-03-17T01:42:55;41.17;;;14.30;;
15603;SDS011;7902;49.042;9.092;2024-03-17T01:45:26;62.70;;;20.57;;
15603;SDS011;7902;49.042;9.092;2024-03-17T01:47:58;52.50;;;17.13;;
15603;SDS011;7902;49.042;9.092;2024-03-17T01:50:28;43.00;;;16.50;;
15603;SDS011;7902;49.042;9.092;2024-03-17T01:52:59;43.43;;;14.33;;
15603;SDS011;7902;49.042;9.092;2024-03-17T01:55:27;27.87;;;11.37;;
15603;SDS011;7902;49.042;9.092;2024-03-17T01:57:53;36.73;;;13.10;;
15603;SDS011;7902;49.042;9.092;2024-03-17T02:00:20;27.23;;;10.93;;
15603;SDS011;7902;49.042;9.092;2024-03-17T02:02:46;22.40;;;8.00;;
15603;SDS011;7902;49.042;9.092;2024-03-17T02:05:13;18.73;;;5.97;;
15603;SDS011;7902;49.042;9.092;2024-03-17T02:07:39;18.47;;;5.80;;
15603;SDS011;7902;49.042;9.092;2024-03-17T02:10:06;21.90;;;5.70;;
15603;SDS011;7902;49.042;9.092;2024-03-17T02:12:34;16.17;;;5.37;;
15603;SDS011;7902;49.042;9.092;2024-03-17T02:15:01;18.40;;;5.33;;
15603;SDS011;7902;49.042;9.092;2024-03-17T02:17:33;16.10;;;5.03;;
15603;SDS011;7902;49.042;9.092;2024-03-17T02:20:00;26.77;;;10.70;;
15603;SDS011;7902;49.042;9.092;2024-03-17T02:22:26;27.17;;;11.30;;
15603;SDS011;7902;49.042;9.092;2024-03-17T02:24:55;33.60;;;12.97;;
15603;SDS011;7902;49.042;9.092;2024-03-17T02:27:21;18.23;;;6.70;;
15603;SDS011;7902;49.042;9.092;2024-03-17T02:29:47;21.67;;;7.67;;
15603;SDS011;7902;49.042;9.092;2024-03-17T02:32:13;29.23;;;7.20;;
15603;SDS011;7902;49.042;9.092;2024-03-17T02:34:39;23.83;;;7.27;;
15603;SDS011;7902;49.042;9.092;2024-03-17T02:37:06;46.03;;;8.33;;
15603;SDS011;7902;49.042;9.092;2024-03-17T02:39:35;24.13;;;7.97;;
15603;SDS011;7902;49.042;9.092;2024-03-17T02:42:03;45.50;;;10.77;;
15603;SDS011;7902;49.042;9.092;2024-03-17T02:44:31;51.37;;;10.43;;
15603;SDS011;7902;49.042;9.092;2024-03-17T02:46:58;61.77;;;13.90;;
15603;SDS011;7902;49.042;9.092;2024-03-17T02:49:24;213.27;;;24.17;;
15603;SDS011;7902;49.042;9.092;2024-03-17T02:51:53;361.30;;;31.40;;
15603;SDS011;7902;49.042;9.092;2024-03-17T02:54:22;373.93;;;25.53;;
15603;SDS011;7902;49.042;9.092;2024-03-17T02:56:48;297.50;;;23.50;;
15603;SDS011;7902;49.042;9.092;2024-03-17T02:59:15;290.50;;;21.73;;
15603;SDS011;7902;49.042;9.092;2024-03-17T03:01:41;607.97;;;41.70;;
15603;SDS011;7902;49.042;9.092;2024-03-17T03:04:07;345.20;;;24.43;;
15603;SDS011;7902;49.042;9.092;2024-03-17T03:06:33;612.33;;;38.93;;
15603;SDS011;7902;49.042;9.092;2024-03-17T03:08:59;566.50;;;36.00;;
15603;SDS011;7902;49.042;9.092;2024-03-17T03:11:25;417.17;;;30.50;;
15603;SDS011;7902;49.042;9.092;2024-03-17T03:13:51;458.20;;;33.27;;
15603;SDS011;7902;49.042;9.092;2024-03-17T03:16:17;453.73;;;30.17;;
15603;SDS011;7902;49.042;9.092;2024-03-17T03:18:46;563.20;;;40.67;;
15603;SDS011;7902;49.042;9.092;2024-03-17T03:21:12;173.93;;;20.40;;
15603;SDS011;7902;49.042;9.092;2024-03-17T03:23:38;343.47;;;29.60;;
15603;SDS011;7902;49.042;9.092;2024-03-17T03:26:04;300.30;;;25.83;;
15603;SDS011;7902;49.042;9.092;2024-03-17T03:28:31;374.93;;;30.20;;
15603;SDS011;7902;49.042;9.092;2024-03-17T03:30:57;180.47;;;21.70;;
15603;SDS011;7902;49.042;9.092;2024-03-17T03:33:24;229.33;;;24.03;;
15603;SDS011;7902;49.042;9.092;2024-03-17T03:35:49;541.63;;;38.60;;
15603;SDS011;7902;49.042;9.092;2024-03-17T03:38:16;153.73;;;18.87;;
15603;SDS011;7902;49.042;9.092;2024-03-17T03:40:43;457.60;;;27.37;;
15603;SDS011;7902;49.042;9.092;2024-03-17T03:43:10;312.10;;;21.60;;
15603;SDS011;7902;49.042;9.092;2024-03-17T03:45:36;379.30;;;34.83;;
15603;SDS011;7902;49.042;9.092;2024-03-17T03:48:02;263.43;;;25.40;;
15603;SDS011;7902;49.042;9.092;2024-03-17T03:50:29;228.93;;;26.07;;
15603;SDS011;7902;49.042;9.092;2024-03-17T03:52:56;173.40;;;23.13;;
15603;SDS011;7902;49.042;9.092;2024-03-17T03:55:22;301.73;;;29.63;;
15603;SDS011;7902;49.042;9.092;2024-03-17T03:57:49;310.33;;;26.50;;
15603;SDS011;7902;49.042;9.092;2024-03-17T04:00:20;697.27;;;45.53;;
15603;SDS011;7902;49.042;9.092;2024-03-17T04:02:51;236.70;;;29.07;;
15603;SDS011;7902;49.042;9.092;2024-03-17T04:05:18;241.03;;;24.33;;
15603;SDS011;7902;49.042;9.092;2024-03-17T04:07:45;289.90;;;26.83;;
15603;SDS011;7902;49.042;9.092;2024-03-17T04:10:12;504.73;;;43.73;;
15603;SDS011;7902;49.042;9.092;2024-03-17T04:12:39;237.00;;;28.90;;
15603;SDS011;7902;49.042;9.092;2024-03-17T04:15:05;195.83;;;25.77;;
15603;SDS011;7902;49.042;9.092;2024-03-17T04:17:33;330.53;;;36.13;;
15603;SDS011;7902;49.042;9.092;2024-03-17T04:19:59;139.43;;;23.03;;
15603;SDS011;7902;49.042;9.092;2024-03-17T04:22:25;355.90;;;35.43;;
15603;SDS011;7902;49.042;9.092;2024-03-17T04:24:52;223.17;;;29.40;;
15603;SDS011;7902;49.042;9.092;2024-03-17T04:27:23;163.77;;;23.07;;
15603;SDS011;7902;49.042;9.092;2024-03-17T04:29:49;252.23;;;31.37;;
15603;SDS011;7902;49.042;9.092;2024-03-17T04:32:22;191.43;;;24.73;;
15603;SDS011;7902;49.042;9.092;2024-03-17T04:34:49;183.20;;;25.57;;
15603;SDS011;7902;49.042;9.092;2024-03-17T04:37:15;286.70;;;30.00;;
15603;SDS011;7902;49.042;9.092;2024-03-17T04:39:42;253.90;;;28.00;;
15603;SDS011;7902;49.042;9.092;2024-03-17T04:42:10;170.10;;;22.27;;
15603;SDS011;7902;49.042;9.092;2024-03-17T04:44:37;164.10;;;24.43;;
15603;SDS011;7902;49.042;9.092;2024-03-17T04:47:03;155.23;;;25.83;;
15603;SDS011;7902;49.042;9.092;2024-03-17T04:49:35;216.00;;;24.93;;
15603;SDS011;7902;49.042;9.092;2024-03-17T04:52:01;126.63;;;23.20;;
15603;SDS011;7902;49.042;9.092;2024-03-17T04:54:27;109.60;;;23.70;;
15603;SDS011;7902;49.042;9.092;2024-03-17T04:56:52;161.00;;;21.37;;
15603;SDS011;7902;49.042;9.092;2024-03-17T04:59:19;94.80;;;22.40;;
15603;SDS011;7902;49.042;9.092;2024-03-17T05:01:44;88.97;;;18.77;;
15603;SDS011;7902;49.042;9.092;2024-03-17T05:04:10;80.60;;;19.60;;
15603;SDS011;7902;49.042;9.092;2024-03-17T05:06:36;85.93;;;18.13;;
15603;SDS011;7902;49.042;9.092;2024-03-17T05:09:02;59.30;;;17.93;;
15603;SDS011;7902;49.042;9.092;2024-03-17T05:11:30;168.17;;;18.60;;
15603;SDS011;7902;49.042;9.092;2024-03-17T05:13:56;134.33;;;19.13;;
15603;SDS011;7902;49.042;9.092;2024-03-17T05:16:22;207.03;;;22.67;;
15603;SDS011;7902;49.042;9.092;2024-03-17T05:18:49;227.87;;;20.23;;
15603;SDS011;7902;49.042;9.092;2024-03-17T05:21:15;176.77;;;18.63;;
15603;SDS011;7902;49.042;9.092;2024-03-17T05:23:41;185.83;;;18.77;;
15603;SDS011;7902;49.042;9.092;2024-03-17T05:26:07;85.77;;;16.73;;
15603;SDS011;7902;49.042;9.092;2024-03-17T05:28:33;77.10;;;19.20;;
15603;SDS011;7902;49.042;9.092;2024-03-17T05:30:59;65.50;;;17.50;;
15603;SDS011;7902;49.042;9.092;2024-03-17T05:33:25;362.13;;;28.43;;
15603;SDS011;7902;49.042;9.092;2024-03-17T05:35:52;302.37;;;23.63;;
15603;SDS011;7902;49.042;9.092;2024-03-17T05:38:23;267.43;;;20.70;;
15603;SDS011;7902;49.042;9.092;2024-03-17T05:41:00;335.80;;;24.90;;
15603;SDS011;7902;49.042;9.092;2024-03-17T05:43:27;428.50;;;22.50;;
15603;SDS011;7902;49.042;9.092;2024-03-17T05:45:59;567.03;;;38.83;;
15603;SDS011;7902;49.042;9.092;2024-03-17T05:48:29;219.67;;;17.10;;
15603;SDS011;7902;49.042;9.092;2024-03-17T05:50:55;413.67;;;24.33;;
15603;SDS011;7902;49.042;9.092;2024-03-17T05:53:21;540.97;;;31.77;;
15603;SDS011;7902;49.042;9.092;2024-03-17T05:55:51;279.57;;;20.97;;
15603;SDS011;7902;49.042;9.092;2024-03-17T05:58:17;108.27;;;15.33;;
15603;SDS011;7902;49.042;9.092;2024-03-17T06:00:43;102.80;;;17.70;;
15603;SDS011;7902;49.042;9.092;2024-03-17T06:03:09;69.87;;;11.67;;
15603;SDS011;7902;49.042;9.092;2024-03-17T06:05:36;113.40;;;12.47;;
15603;SDS011;7902;49.042;9.092;2024-03-17T06:08:03;76.17;;;11.53;;
15603;SDS011;7902;49.042;9.092;2024-03-17T06:10:31;93.30;;;12.40;;
15603;SDS011;7902;49.042;9.092;2024-03-17T06:12:58;197.13;;;14.83;;
15603;SDS011;7902;49.042;9.092;2024-03-17T06:15:24;151.77;;;13.00;;
15603;SDS011;7902;49.042;9.092;2024-03-17T06:17:50;236.60;;;16.53;;
15603;SDS011;7902;49.042;9.092;2024-03-17T06:20:20;204.50;;;13.80;;
15603;SDS011;7902;49.042;9.092;2024-03-17T06:22:46;75.27;;;9.73;;
15603;SDS011;7902;49.042;9.092;2024-03-17T06:25:13;89.07;;;9.57;;
15603;SDS011;7902;49.042;9.092;2024-03-17T06:27:39;120.40;;;10.80;;
15603;SDS011;7902;49.042;9.092;2024-03-17T06:30:05;152.73;;;12.33;;
15603;SDS011;7902;49.042;9.092;2024-03-17T06:32:35;54.07;;;10.27;;
15603;SDS011;7902;49.042;9.092;2024-03-17T06:35:01;242.97;;;15.40;;
15603;SDS011;7902;49.042;9.092;2024-03-17T06:37:28;42.73;;;10.17;;
15603;SDS011;7902;49.042;9.092;2024-03-17T06:39:53;118.30;;;16.90;;
15603;SDS011;7902;49.042;9.092;2024-03-17T06:42:20;95.13;;;12.10;;
15603;SDS011;7902;49.042;9.092;2024-03-17T06:44:46;70.30;;;10.37;;
15603;SDS011;7902;49.042;9.092;2024-03-17T06:47:12;38.63;;;8.43;;
15603;SDS011;7902;49.042;9.092;2024-03-17T06:49:38;54.67;;;9.27;;
15603;SDS011;7902;49.042;9.092;2024-03-17T06:52:04;28.80;;;8.73;;
15603;SDS011;7902;49.042;9.092;2024-03-17T06:54:30;23.53;;;9.33;;
15603;SDS011;7902;49.042;9.092;2024-03-17T06:56:57;27.70;;;9.70;;
15603;SDS011;7902;49.042;9.092;2024-03-17T06:59:23;28.97;;;10.00;;
15603;SDS011;7902;49.042;9.092;2024-03-17T07:01:49;63.37;;;9.03;;
15603;SDS011;7902;49.042;9.092;2024-03-17T07:04:15;20.67;;;8.60;;
15603;SDS011;7902;49.042;9.092;2024-03-17T07:06:46;20.83;;;7.30;;
15603;SDS011;7902;49.042;9.092;2024-03-17T07:09:12;24.40;;;7.97;;
15603;SDS011;7902;49.042;9.092;2024-03-17T07:11:38;27.30;;;7.37;;
15603;SDS011;7902;49.042;9.092;2024-03-17T07:14:04;19.93;;;6.70;;
15603;SDS011;7902;49.042;9.092;2024-03-17T07:16:30;19.90;;;7.13;;
15603;SDS011;7902;49.042;9.092;2024-03-17T07:18:57;29.80;;;6.27;;
15603;SDS011;7902;49.042;9.092;2024-03-17T07:21:23;17.53;;;6.90;;
15603;SDS011;7902;49.042;9.092;2024-03-17T07:23:49;17.13;;;6.33;;
15603;SDS011;7902;49.042;9.092;2024-03-17T07:26:15;16.93;;;6.07;;
15603;SDS011;7902;49.042;9.092;2024-03-17T07:28:41;18.20;;;6.80;;
15603;SDS011;7902;49.042;9.092;2024-03-17T07:31:10;20.70;;;6.43;;
15603;SDS011;7902;49.042;9.092;2024-03-17T07:33:37;17.40;;;6.90;;
15603;SDS011;7902;49.042;9.092;2024-03-17T07:36:03;45.50;;;22.93;;
15603;SDS011;7902;49.042;9.092;2024-03-17T07:38:30;21.37;;;9.37;;
15603;SDS011;7902;49.042;9.092;2024-03-17T07:40:57;20.00;;;8.03;;
15603;SDS011;7902;49.042;9.092;2024-03-17T07:43:27;22.07;;;7.00;;
15603;SDS011;7902;49.042;9.092;2024-03-17T07:45:58;18.80;;;7.33;;
15603;SDS011;7902;49.042;9.092;2024-03-17T07:48:24;22.90;;;6.70;;
15603;SDS011;7902;49.042;9.092;2024-03-17T07:50:57;16.20;;;5.80;;
15603;SDS011;7902;49.042;9.092;2024-03-17T07:53:24;18.40;;;6.70;;
15603;SDS011;7902;49.042;9.092;2024-03-17T07:55:57;21.60;;;6.80;;
15603;SDS011;7902;49.042;9.092;2024-03-17T07:58:26;16.90;;;6.00;;
15603;SDS011;7902;49.042;9.092;2024-03-17T08:00:56;17.73;;;6.13;;
15603;SDS011;7902;49.042;9.092;2024-03-17T08:03:25;16.60;;;5.77;;
15603;SDS011;7902;49.042;9.092;2024-03-17T08:05:55;17.73;;;6.23;;
15603;SDS011;7902;49.042;9.092;2024-03-17T08:08:21;22.20;;;6.40;;
15603;SDS011;7902;49.042;9.092;2024-03-17T08:10:47;18.60;;;5.97;;
15603;SDS011;7902;49.042;9.092;2024-03-17T08:13:17;18.30;;;5.57;;
15603;SDS011;7902;49.042;9.092;2024-03-17T08:15:43;17.10;;;5.40;;
15603;SDS011;7902;49.042;9.092;2024-03-17T08:18:13;20.20;;;6.40;;
15603;SDS011;7902;49.042;9.092;2024-03-17T08:20:39;22.03;;;6.53;;
15603;SDS011;7902;49.042;9.092;2024-03-17T08:23:06;20.00;;;6.60;;
15603;SDS011;7902;49.042;9.092;2024-03-17T08:25:35;18.30;;;5.97;;
15603;SDS011;7902;49.042;9.092;2024-03-17T08:28:01;16.53;;;6.07;;
15603;SDS011;7902;49.042;9.092;2024-03-17T08:30:28;16.43;;;5.63;;
15603;SDS011;7902;49.042;9.092;2024-03-17T08:32:56;18.03;;;5.23;;
15603;SDS011;7902;49.042;9.092;2024-03-17T08:35:22;14.30;;;4.27;;
15603;SDS011;7902;49.042;9.092;2024-03-17T08:37:48;20.77;;;5.97;;
15603;SDS011;7902;49.042;9.092;2024-03-17T08:40:16;17.10;;;6.50;;
15603;SDS011;7902;49.042;9.092;2024-03-17T08:42:43;18.30;;;6.07;;
15603;SDS011;7902;49.042;9.092;2024-03-17T08:45:12;19.27;;;6.17;;
15603;SDS011;7902;49.042;9.092;2024-03-17T08:47:38;19.67;;;5.77;;
15603;SDS011;7902;49.042;9.092;2024-03-17T08:50:04;19.93;;;5.27;;
15603;SDS011;7902;49.042;9.092;2024-03-17T08:52:33;15.67;;;5.10;;
15603;SDS011;7902;49.042;9.092;2024-03-17T08:54:59;20.57;;;6.20;;
15603;SDS011;7902;49.042;9.092;2024-03-17T08:57:29;26.17;;;6.20;;
15603;SDS011;7902;49.042;9.092;2024-03-17T08:59:55;18.23;;;5.03;;
15603;SDS011;7902;49.042;9.092;2024-03-17T09:02:21;15.17;;;5.27;;
15603;SDS011;7902;49.042;9.092;2024-03-17T09:04:47;15.47;;;5.10;;
15603;SDS011;7902;49.042;9.092;2024-03-17T09:07:13;16.43;;;5.20;;
15603;SDS011;7902;49.042;9.092;2024-03-17T09:09:41;15.83;;;5.33;;
15603;SDS011;7902;49.042;9.092;2024-03-17T09:12:07;15.63;;;5.47;;
15603;SDS011;7902;49.042;9.092;2024-03-17T09:14:33;18.20;;;5.40;;
15603;SDS011;7902;49.042;9.092;2024-03-17T09:16:59;22.77;;;6.40;;
15603;SDS011;7902;49.042;9.092;2024-03-17T09:19:25;17.70;;;6.10;;
15603;SDS011;7902;49.042;9.092;2024-03-17T09:21:51;15.80;;;5.00;;
15603;SDS011;7902;49.042;9.092;2024-03-17T09:24:17;20.77;;;5.90;;
15603;SDS011;7902;49.042;9.092;2024-03-17T09:26:43;15.80;;;5.23;;
15603;SDS011;7902;49.042;9.092;2024-03-17T09:29:09;16.10;;;5.37;;
15603;SDS011;7902;49.042;9.092;2024-03-17T09:31:35;18.20;;;4.90;;
15603;SDS011;7902;49.042;9.092;2024-03-17T09:34:01;16.63;;;5.33;;
15603;SDS011;7902;49.042;9.092;2024-03-17T09:36:28;16.40;;;4.87;;
15603;SDS011;7902;49.042;9.092;2024-03-17T09:38:54;15.10;;;4.20;;
15603;SDS011;7902;49.042;9.092;2024-03-17T09:41:20;16.37;;;5.47;;
15603;SDS011;7902;49.042;9.092;2024-03-17T09:43:48;25.53;;;5.23;;
15603;SDS011;7902;49.042;9.092;2024-03-17T09:46:14;20.33;;;5.80;;
15603;SDS011;7902;49.042;9.092;2024-03-17T09:48:41;17.80;;;5.57;;
15603;SDS011;7902;49.042;9.092;2024-03-17T09:51:09;17.83;;;5.73;;
15603;SDS011;7902;49.042;9.092;2024-03-17T09:53:43;16.67;;;5.30;;
15603;SDS011;7902;49.042;9.092;2024-03-17T09:56:10;18.37;;;5.43;;
15603;SDS011;7902;49.042;9.092;2024-03-17T09:58:39;19.33;;;5.90;;
15603;SDS011;7902;49.042;9.092;2024-03-17T10:01:05;17.67;;;6.57;;
15603;SDS011;7902;49.042;9.092;2024-03-17T10:06:22;18.57;;;6.70;;
15603;SDS011;7902;49.042;9.092;2024-03-17T10:08:53;18.77;;;6.47;;
15603;SDS011;7902;49.042;9.092;2024-03-17T10:11:21;18.07;;;5.83;;
15603;SDS011;7902;49.042;9.092;2024-03-17T10:14:10;20.57;;;6.23;;
15603;SDS011;7902;49.042;9.092;2024-03-17T10:16:35;20.00;;;6.80;;
15603;SDS011;7902;49.042;9.092;2024-03-17T10:19:07;20.10;;;7.47;;
15603;SDS011;7902;49.042;9.092;2024-03-17T10:21:36;19.40;;;7.13;;
15603;SDS011;7902;49.042;9.092;2024-03-17T10:24:04;18.93;;;5.97;;
15603;SDS011;7902;49.042;9.092;2024-03-17T10:26:31;22.03;;;6.60;;
15603;SDS011;7902;49.042;9.092;2024-03-17T10:28:57;18.03;;;5.63;;
15603;SDS011;7902;49.042;9.092;2024-03-17T10:31:23;19.20;;;6.50;;
15603;SDS011;7902;49.042;9.092;2024-03-17T10:34:00;17.77;;;5.90;;
15603;SDS011;7902;49.042;9.092;2024-03-17T10:36:27;18.83;;;5.70;;
15603;SDS011;7902;49.042;9.092;2024-03-17T10:38:52;20.57;;;6.87;;
15603;SDS011;7902;49.042;9.092;2024-03-17T10:41:20;20.70;;;7.00;;
15603;SDS011;7902;49.042;9.092;2024-03-17T10:43:47;21.47;;;5.83;;
15603;SDS011;7902;49.042;9.092;2024-03-17T10:46:13;22.87;;;8.00;;
15603;SDS011;7902;49.042;9.092;2024-03-17T10:48:40;20.83;;;6.87;;
15603;SDS011;7902;49.042;9.092;2024-03-17T10:51:07;19.10;;;6.30;;
15603;SDS011;7902;49.042;9.092;2024-03-17T10:53:42;19.83;;;6.50;;
15603;SDS011;7902;49.042;9.092;2024-03-17T10:56:12;19.07;;;6.00;;
15603;SDS011;7902;49.042;9.092;2024-03-17T10:58:43;18.83;;;5.93;;
15603;SDS011;7902;49.042;9.092;2024-03-17T11:01:15;20.80;;;6.90;;
15603;SDS011;7902;49.042;9.092;2024-03-17T11:03:41;17.67;;;6.00;;
15603;SDS011;7902;49.042;9.092;2024-03-17T11:06:09;19.77;;;6.50;;
15603;SDS011;7902;49.042;9.092;2024-03-17T11:08:35;21.17;;;5.73;;
15603;SDS011;7902;49.042;9.092;2024-03-17T11:11:04;19.13;;;5.17;;
15603;SDS011;7902;49.042;9.092;2024-03-17T11:13:30;23.80;;;6.07;;
15603;SDS011;7902;49.042;9.092;2024-03-17T11:15:58;23.87;;;5.40;;
15603;SDS011;7902;49.042;9.092;2024-03-17T11:21:00;22.43;;;5.87;;
15603;SDS011;7902;49.042;9.092;2024-03-17T11:23:40;18.03;;;5.70;;
15603;SDS011;7902;49.042;9.092;2024-03-17T11:26:07;21.90;;;4.83;;
15603;SDS011;7902;49.042;9.092;2024-03-17T11:34:26;22.37;;;4.20;;
15603;SDS011;7902;49.042;9.092;2024-03-17T11:36:54;17.17;;;3.80;;
15603;SDS011;7902;49.042;9.092;2024-03-17T11:39:45;16.73;;;3.30;;
15603;SDS011;7902;49.042;9.092;2024-03-17T11:42:24;19.40;;;4.07;;
15603;SDS011;7902;49.042;9.092;2024-03-17T11:45:04;16.03;;;2.97;;
15603;SDS011;7902;49.042;9.092;2024-03-17T11:47:36;18.73;;;3.33;;
15603;SDS011;7902;49.042;9.092;2024-03-17T11:50:04;20.40;;;2.80;;
15603;SDS011;7902;49.042;9.092;2024-03-17T11:52:31;18.00;;;3.90;;
15603;SDS011;7902;49.042;9.092;2024-03-17T11:54:57;18.40;;;3.30;;
15603;SDS011;7902;49.042;9.092;2024-03-17T11:57:23;17.80;;;2.60;;
15603;SDS011;7902;49.042;9.092;2024-03-17T11:59:51;16.80;;;2.57;;
15603;SDS011;7902;49.042;9.092;2024-03-17T12:02:22;15.40;;;2.53;;
15603;SDS011;7902;49.042;9.092;2024-03-17T12:04:57;18.47;;;2.27;;
15603;SDS011;7902;49.042;9.092;2024-03-17T12:07:25;17.07;;;2.23;;
15603;SDS011;7902;49.042;9.092;2024-03-17T12:09:53;22.80;;;3.00;;
15603;SDS011;7902;49.042;9.092;2024-03-17T12:12:21;15.87;;;2.30;;
15603;SDS011;7902;49.042;9.092;2024-03-17T12:15:00;15.77;;;2.50;;
15603;SDS011;7902;49.042;9.092;2024-03-17T12:17:28;17.70;;;2.70;;
15603;SDS011;7902;49.042;9.092;2024-03-17T12:19:54;17.23;;;2.50;;
15603;SDS011;7902;49.042;9.092;2024-03-17T12:22:24;16.90;;;2.53;;
15603;SDS011;7902;49.042;9.092;2024-03-17T12:24:52;17.40;;;2.37;;
15603;SDS011;7902;49.042;9.092;2024-03-17T12:27:19;16.73;;;3.07;;
15603;SDS011;7902;49.042;9.092;2024-03-17T12:29:47;20.03;;;3.17;;
15603;SDS011;7902;49.042;9.092;2024-03-17T12:32:15;18.03;;;2.80;;
15603;SDS011;7902;49.042;9.092;2024-03-17T12:34:46;17.03;;;2.40;;
15603;SDS011;7902;49.042;9.092;2024-03-17T12:37:18;15.70;;;2.43;;
15603;SDS011;7902;49.042;9.092;2024-03-17T12:39:45;17.90;;;2.77;;
15603;SDS011;7902;49.042;9.092;2024-03-17T12:42:13;18.47;;;3.40;;
15603;SDS011;7902;49.042;9.092;2024-03-17T12:47:21;23.13;;;2.47;;
15603;SDS011;7902;49.042;9.092;2024-03-17T12:49:53;22.40;;;2.57;;
15603;SDS011;7902;49.042;9.092;2024-03-17T12:52:24;20.27;;;3.10;;
15603;SDS011;7902;49.042;9.092;2024-03-17T12:57:45;16.50;;;2.60;;
15603;SDS011;7902;49.042;9.092;2024-03-17T13:00:31;16.20;;;2.27;;
15603;SDS011;7902;49.042;9.092;2024-03-17T13:02:57;15.30;;;2.10;;
15603;SDS011;7902;49.042;9.092;2024-03-17T13:05:24;20.33;;;3.17;;
15603;SDS011;7902;49.042;9.092;2024-03-17T13:07:50;17.67;;;2.50;;
15603;SDS011;7902;49.042;9.092;2024-03-17T13:10:17;16.13;;;2.40;;
15603;SDS011;7902;49.042;9.092;2024-03-17T13:12:44;15.37;;;2.03;;
15603;SDS011;7902;49.042;9.092;2024-03-17T13:15:14;16.67;;;2.77;;
15603;SDS011;7902;49.042;9.092;2024-03-17T13:17:42;16.93;;;2.50;;
15603;SDS011;7902;49.042;9.092;2024-03-17T13:20:17;15.50;;;2.33;;
15603;SDS011;7902;49.042;9.092;2024-03-17T13:22:44;15.87;;;2.20;;
15603;SDS011;7902;49.042;9.092;2024-03-17T13:25:14;22.83;;;2.93;;
15603;SDS011;7902;49.042;9.092;2024-03-17T13:27:42;17.10;;;2.63;;
15603;SDS011;7902;49.042;9.092;2024-03-17T13:30:09;17.30;;;2.50;;
15603;SDS011;7902;49.042;9.092;2024-03-17T13:32:35;21.27;;;2.60;;
15603;SDS011;7902;49.042;9.092;2024-03-17T13:35:01;17.23;;;2.70;;
15603;SDS011;7902;49.042;9.092;2024-03-17T13:37:28;16.20;;;2.60;;
15603;SDS011;7902;49.042;9.092;2024-03-17T13:39:54;17.83;;;2.90;;
15603;SDS011;7902;49.042;9.092;2024-03-17T13:42:20;20.23;;;2.63;;
15603;SDS011;7902;49.042;9.092;2024-03-17T13:44:46;18.67;;;3.23;;
15603;SDS011;7902;49.042;9.092;2024-03-17T13:47:12;15.70;;;2.27;;
15603;SDS011;7902;49.042;9.092;2024-03-17T13:49:40;19.23;;;2.50;;
15603;SDS011;7902;49.042;9.092;2024-03-17T13:52:06;18.60;;;2.57;;
15603;SDS011;7902;49.042;9.092;2024-03-17T13:54:33;18.23;;;2.63;;
15603;SDS011;7902;49.042;9.092;2024-03-17T13:56:59;18.07;;;2.97;;
15603;SDS011;7902;49.042;9.092;2024-03-17T13:59:27;20.93;;;2.37;;
15603;SDS011;7902;49.042;9.092;2024-03-17T14:01:54;15.30;;;2.40;;
15603;SDS011;7902;49.042;9.092;2024-03-17T14:04:20;15.47;;;2.47;;
15603;SDS011;7902;49.042;9.092;2024-03-17T14:06:46;19.73;;;2.80;;
15603;SDS011;7902;49.042;9.092;2024-03-17T14:09:17;19.80;;;2.90;;
15603;SDS011;7902;49.042;9.092;2024-03-17T14:11:45;16.90;;;2.63;;
15603;SDS011;7902;49.042;9.092;2024-03-17T14:14:14;17.00;;;1.97;;
15603;SDS011;7902;49.042;9.092;2024-03-17T14:16:40;16.63;;;2.30;;
15603;SDS011;7902;49.042;9.092;2024-03-17T14:19:08;21.30;;;2.80;;
15603;SDS011;7902;49.042;9.092;2024-03-17T14:21:34;20.07;;;2.80;;
15603;SDS011;7902;49.042;9.092;2024-03-17T14:24:00;17.57;;;2.80;;
15603;SDS011;7902;49.042;9.092;2024-03-17T14:26:29;18.60;;;2.90;;
15603;SDS011;7902;49.042;9.092;2024-03-17T14:28:55;19.23;;;2.67;;
15603;SDS011;7902;49.042;9.092;2024-03-17T14:31:22;18.67;;;2.40;;
15603;SDS011;7902;49.042;9.092;2024-03-17T14:33:48;21.03;;;2.67;;
15603;SDS011;7902;49.042;9.092;2024-03-17T14:36:14;18.93;;;3.20;;
15603;SDS011;7902;49.042;9.092;2024-03-17T14:38:40;15.50;;;2.07;;
15603;SDS011;7902;49.042;9.092;2024-03-17T14:41:06;17.00;;;2.60;;
15603;SDS011;7902;49.042;9.092;2024-03-17T14:43:32;18.40;;;2.90;;
15603;SDS011;7902;49.042;9.092;2024-03-17T14:46:01;19.30;;;3.10;;
15603;SDS011;7902;49.042;9.092;2024-03-17T14:48:27;15.83;;;2.20;;
15603;SDS011;7902;49.042;9.092;2024-03-17T14:50:53;17.30;;;2.73;;
15603;SDS011;7902;49.042;9.092;2024-03-17T14:53:19;19.67;;;2.70;;
15603;SDS011;7902;49.042;9.092;2024-03-17T14:55:45;18.37;;;3.23;;
15603;SDS011;7902;49.042;9.092;2024-03-17T14:58:11;23.70;;;5.80;;